sensor_id;sensor_type;location;lat;lon;timestamp;P1;durP1;ratioP1;P2;durP2;ratioP2
59930;SDS011;45790;51.538;6.736;2022-12-29T00:02:01;0.95;;;0.70;;
59930;SDS011;45790;51.538;6.736;2022-12-29T00:04:27;1.00;;;0.73;;
59930;SDS011;45790;51.538;6.736;2022-12-29T00:06:52;1.25;;;0.65;;
59930;SDS011;45790;51.538;6.736;2022-12-29T00:09:18;1.15;;;0.80;;
59930;SDS011;45790;51.538;6.736;2022-12-29T00:11:43;1.00;;;0.70;;
59930;SDS011;45790;51.538;6.736;2022-12-29T00:14:09;1.58;;;0.82;;
59930;SDS011;45790;51.538;6.736;2022-12-29T00:16:53;1.25;;;0.68;;
59930;SDS011;45790;51.538;6.736;2022-12-29T00:19:22;1.15;;;0.75;;
59930;SDS011;45790;51.538;6.736;2022-12-29T00:22:08;1.20;;;0.70;;
59930;SDS011;45790;51.538;6.736;2022-12-29T00:24:53;1.08;;;0.60;;
59930;SDS011;45790;51.538;6.736;2022-12-29T00:27:37;1.05;;;0.70;;
59930;SDS011;45790;51.538;6.736;2022-12-29T00:30:21;1.08;;;0.80;;
59930;SDS011;45790;51.538;6.736;2022-12-29T00:33:10;1.13;;;0.70;;
59930;SDS011;45790;51.538;6.736;2022-12-29T00:36:04;1.10;;;0.80;;
59930;SDS011;45790;51.538;6.736;2022-12-29T00:38:31;1.05;;;0.80;;
59930;SDS011;45790;51.538;6.736;2022-12-29T00:41:17;1.15;;;0.75;;
59930;SDS011;45790;51.538;6.736;2022-12-29T00:44:01;1.38;;;0.77;;
59930;SDS011;45790;51.538;6.736;2022-12-29T00:46:30;1.67;;;0.90;;
59930;SDS011;45790;51.538;6.736;2022-12-29T00:48:56;1.98;;;0.93;;
59930;SDS011;45790;51.538;6.736;2022-12-29T00:51:40;2.38;;;0.80;;
59930;SDS011;45790;51.538;6.736;2022-12-29T00:54:07;1.60;;;0.82;;
59930;SDS011;45790;51.538;6.736;2022-12-29T00:56:33;1.83;;;0.70;;
59930;SDS011;45790;51.538;6.736;2022-12-29T00:59:05;2.00;;;0.85;;
59930;SDS011;45790;51.538;6.736;2022-12-29T01:01:32;2.00;;;0.90;;
59930;SDS011;45790;51.538;6.736;2022-12-29T01:03:58;0.82;;;0.70;;
59930;SDS011;45790;51.538;6.736;2022-12-29T01:06:23;1.45;;;0.80;;
59930;SDS011;45790;51.538;6.736;2022-12-29T01:08:48;1.02;;;0.80;;
59930;SDS011;45790;51.538;6.736;2022-12-29T01:11:37;1.40;;;0.75;;
59930;SDS011;45790;51.538;6.736;2022-12-29T01:14:02;1.40;;;0.70;;
59930;SDS011;45790;51.538;6.736;2022-12-29T01:16:27;1.42;;;0.80;;
59930;SDS011;45790;51.538;6.736;2022-12-29T01:18:53;1.02;;;0.70;;
59930;SDS011;45790;51.538;6.736;2022-12-29T01:21:18;2.63;;;0.90;;
59930;SDS011;45790;51.538;6.736;2022-12-29T01:23:44;1.63;;;0.70;;
59930;SDS011;45790;51.538;6.736;2022-12-29T01:26:10;1.25;;;0.70;;
59930;SDS011;45790;51.538;6.736;2022-12-29T01:28:36;1.17;;;0.75;;
59930;SDS011;45790;51.538;6.736;2022-12-29T01:31:04;1.63;;;0.80;;
59930;SDS011;45790;51.538;6.736;2022-12-29T01:33:30;1.40;;;0.80;;
59930;SDS011;45790;51.538;6.736;2022-12-29T01:35:59;1.23;;;0.70;;
59930;SDS011;45790;51.538;6.736;2022-12-29T01:38:25;1.02;;;0.70;;
59930;SDS011;45790;51.538;6.736;2022-12-29T01:40:50;1.55;;;0.80;;
59930;SDS011;45790;51.538;6.736;2022-12-29T01:43:16;1.02;;;0.57;;
59930;SDS011;45790;51.538;6.736;2022-12-29T01:45:44;1.40;;;0.77;;
59930;SDS011;45790;51.538;6.736;2022-12-29T01:48:12;1.30;;;0.70;;
59930;SDS011;45790;51.538;6.736;2022-12-29T01:50:39;1.20;;;0.70;;
59930;SDS011;45790;51.538;6.736;2022-12-29T01:53:09;0.77;;;0.50;;
59930;SDS011;45790;51.538;6.736;2022-12-29T01:55:43;1.70;;;0.90;;
59930;SDS011;45790;51.538;6.736;2022-12-29T01:58:10;0.85;;;0.50;;
59930;SDS011;45790;51.538;6.736;2022-12-29T02:00:37;1.55;;;0.75;;
59930;SDS011;45790;51.538;6.736;2022-12-29T02:03:02;1.45;;;0.63;;
59930;SDS011;45790;51.538;6.736;2022-12-29T02:05:44;1.88;;;0.77;;
59930;SDS011;45790;51.538;6.736;2022-12-29T02:08:19;1.25;;;0.70;;
59930;SDS011;45790;51.538;6.736;2022-12-29T02:10:45;0.95;;;0.60;;
59930;SDS011;45790;51.538;6.736;2022-12-29T02:13:14;0.88;;;0.70;;
59930;SDS011;45790;51.538;6.736;2022-12-29T02:36:01;0.60;;;0.55;;
59930;SDS011;45790;51.538;6.736;2022-12-29T02:41:03;1.52;;;0.50;;
59930;SDS011;45790;51.538;6.736;2022-12-29T02:46:04;1.50;;;0.60;;
59930;SDS011;45790;51.538;6.736;2022-12-29T02:48:46;0.50;;;0.50;;
59930;SDS011;45790;51.538;6.736;2022-12-29T02:51:27;2.72;;;0.57;;
59930;SDS011;45790;51.538;6.736;2022-12-29T02:53:56;1.10;;;0.70;;
59930;SDS011;45790;51.538;6.736;2022-12-29T02:56:40;0.88;;;0.55;;
59930;SDS011;45790;51.538;6.736;2022-12-29T02:59:05;0.70;;;0.60;;
59930;SDS011;45790;51.538;6.736;2022-12-29T03:06:39;1.67;;;0.60;;
59930;SDS011;45790;51.538;6.736;2022-12-29T03:09:33;0.63;;;0.50;;
59930;SDS011;45790;51.538;6.736;2022-12-29T03:15:18;0.70;;;0.60;;
59930;SDS011;45790;51.538;6.736;2022-12-29T03:18:06;1.27;;;0.50;;
59930;SDS011;45790;51.538;6.736;2022-12-29T03:20:41;0.85;;;0.50;;
59930;SDS011;45790;51.538;6.736;2022-12-29T03:23:14;2.75;;;0.80;;
59930;SDS011;45790;51.538;6.736;2022-12-29T03:25:43;1.45;;;0.45;;
59930;SDS011;45790;51.538;6.736;2022-12-29T03:28:13;0.80;;;0.60;;
59930;SDS011;45790;51.538;6.736;2022-12-29T03:30:43;1.35;;;0.68;;
59930;SDS011;45790;51.538;6.736;2022-12-29T03:33:10;0.50;;;0.50;;
59930;SDS011;45790;51.538;6.736;2022-12-29T03:35:38;1.35;;;0.57;;
59930;SDS011;45790;51.538;6.736;2022-12-29T03:38:07;0.77;;;0.50;;
59930;SDS011;45790;51.538;6.736;2022-12-29T03:40:36;0.80;;;0.60;;
59930;SDS011;45790;51.538;6.736;2022-12-29T03:43:03;1.00;;;0.50;;
59930;SDS011;45790;51.538;6.736;2022-12-29T03:45:29;2.13;;;0.50;;
59930;SDS011;45790;51.538;6.736;2022-12-29T03:47:55;1.52;;;0.70;;
59930;SDS011;45790;51.538;6.736;2022-12-29T03:50:20;1.52;;;0.70;;
59930;SDS011;45790;51.538;6.736;2022-12-29T03:52:45;1.08;;;0.60;;
59930;SDS011;45790;51.538;6.736;2022-12-29T03:55:11;1.33;;;0.65;;
59930;SDS011;45790;51.538;6.736;2022-12-29T03:57:36;1.42;;;0.63;;
59930;SDS011;45790;51.538;6.736;2022-12-29T04:00:02;1.00;;;0.60;;
59930;SDS011;45790;51.538;6.736;2022-12-29T04:02:29;1.75;;;0.60;;
59930;SDS011;45790;51.538;6.736;2022-12-29T04:04:54;1.35;;;0.50;;
59930;SDS011;45790;51.538;6.736;2022-12-29T04:07:22;0.93;;;0.68;;
59930;SDS011;45790;51.538;6.736;2022-12-29T04:09:48;0.82;;;0.70;;
59930;SDS011;45790;51.538;6.736;2022-12-29T04:12:13;1.63;;;0.88;;
59930;SDS011;45790;51.538;6.736;2022-12-29T04:14:39;0.75;;;0.50;;
59930;SDS011;45790;51.538;6.736;2022-12-29T04:17:05;0.93;;;0.60;;
59930;SDS011;45790;51.538;6.736;2022-12-29T04:19:30;1.60;;;0.60;;
59930;SDS011;45790;51.538;6.736;2022-12-29T04:21:55;1.77;;;0.50;;
59930;SDS011;45790;51.538;6.736;2022-12-29T04:24:21;1.25;;;0.70;;
59930;SDS011;45790;51.538;6.736;2022-12-29T04:26:46;0.50;;;0.50;;
59930;SDS011;45790;51.538;6.736;2022-12-29T04:29:11;1.80;;;0.50;;
59930;SDS011;45790;51.538;6.736;2022-12-29T04:31:36;0.88;;;0.70;;
59930;SDS011;45790;51.538;6.736;2022-12-29T04:34:02;1.65;;;0.52;;
59930;SDS011;45790;51.538;6.736;2022-12-29T04:36:27;1.15;;;0.60;;
59930;SDS011;45790;51.538;6.736;2022-12-29T04:38:53;0.60;;;0.60;;
59930;SDS011;45790;51.538;6.736;2022-12-29T04:41:18;0.98;;;0.60;;
59930;SDS011;45790;51.538;6.736;2022-12-29T04:43:43;1.15;;;0.60;;
59930;SDS011;45790;51.538;6.736;2022-12-29T04:46:09;1.70;;;0.70;;
59930;SDS011;45790;51.538;6.736;2022-12-29T04:48:34;1.60;;;0.52;;
59930;SDS011;45790;51.538;6.736;2022-12-29T04:51:03;1.00;;;0.70;;
59930;SDS011;45790;51.538;6.736;2022-12-29T04:53:28;0.75;;;0.50;;
59930;SDS011;45790;51.538;6.736;2022-12-29T04:55:56;0.55;;;0.50;;
59930;SDS011;45790;51.538;6.736;2022-12-29T04:58:21;1.52;;;0.63;;
59930;SDS011;45790;51.538;6.736;2022-12-29T05:00:47;2.65;;;0.70;;
59930;SDS011;45790;51.538;6.736;2022-12-29T05:03:12;0.82;;;0.52;;
59930;SDS011;45790;51.538;6.736;2022-12-29T05:05:37;1.23;;;0.50;;
59930;SDS011;45790;51.538;6.736;2022-12-29T05:08:03;1.17;;;0.60;;
59930;SDS011;45790;51.538;6.736;2022-12-29T05:10:31;0.98;;;0.40;;
59930;SDS011;45790;51.538;6.736;2022-12-29T05:12:57;3.13;;;0.50;;
59930;SDS011;45790;51.538;6.736;2022-12-29T05:15:23;2.40;;;0.60;;
59930;SDS011;45790;51.538;6.736;2022-12-29T05:17:48;0.98;;;0.50;;
59930;SDS011;45790;51.538;6.736;2022-12-29T05:20:13;1.75;;;0.57;;
59930;SDS011;45790;51.538;6.736;2022-12-29T05:22:39;0.73;;;0.60;;
59930;SDS011;45790;51.538;6.736;2022-12-29T05:25:04;1.45;;;0.50;;
59930;SDS011;45790;51.538;6.736;2022-12-29T05:27:30;2.15;;;0.52;;
59930;SDS011;45790;51.538;6.736;2022-12-29T05:29:55;1.17;;;0.60;;
59930;SDS011;45790;51.538;6.736;2022-12-29T05:32:20;0.68;;;0.40;;
59930;SDS011;45790;51.538;6.736;2022-12-29T05:34:45;2.90;;;0.63;;
59930;SDS011;45790;51.538;6.736;2022-12-29T05:37:11;0.52;;;0.50;;
59930;SDS011;45790;51.538;6.736;2022-12-29T05:39:37;2.47;;;1.58;;
59930;SDS011;45790;51.538;6.736;2022-12-29T05:42:02;0.85;;;0.50;;
59930;SDS011;45790;51.538;6.736;2022-12-29T05:44:30;2.83;;;0.63;;
59930;SDS011;45790;51.538;6.736;2022-12-29T05:46:56;0.65;;;0.50;;
59930;SDS011;45790;51.538;6.736;2022-12-29T05:49:21;2.33;;;0.45;;
59930;SDS011;45790;51.538;6.736;2022-12-29T05:51:48;1.35;;;0.40;;
59930;SDS011;45790;51.538;6.736;2022-12-29T05:54:14;1.13;;;0.47;;
59930;SDS011;45790;51.538;6.736;2022-12-29T05:56:39;1.25;;;0.40;;
59930;SDS011;45790;51.538;6.736;2022-12-29T05:59:04;2.45;;;0.50;;
59930;SDS011;45790;51.538;6.736;2022-12-29T06:01:30;0.88;;;0.40;;
59930;SDS011;45790;51.538;6.736;2022-12-29T06:03:55;1.17;;;0.40;;
59930;SDS011;45790;51.538;6.736;2022-12-29T06:06:20;1.30;;;0.40;;
59930;SDS011;45790;51.538;6.736;2022-12-29T06:08:46;0.60;;;0.45;;
59930;SDS011;45790;51.538;6.736;2022-12-29T06:11:11;1.85;;;0.60;;
59930;SDS011;45790;51.538;6.736;2022-12-29T06:13:36;0.45;;;0.40;;
59930;SDS011;45790;51.538;6.736;2022-12-29T06:16:02;1.48;;;0.50;;
59930;SDS011;45790;51.538;6.736;2022-12-29T06:18:28;0.65;;;0.40;;
59930;SDS011;45790;51.538;6.736;2022-12-29T06:20:53;0.93;;;0.50;;
59930;SDS011;45790;51.538;6.736;2022-12-29T06:23:19;0.30;;;0.30;;
59930;SDS011;45790;51.538;6.736;2022-12-29T06:25:45;0.88;;;0.40;;
59930;SDS011;45790;51.538;6.736;2022-12-29T06:28:12;1.17;;;0.55;;
59930;SDS011;45790;51.538;6.736;2022-12-29T06:30:37;1.45;;;0.40;;
59930;SDS011;45790;51.538;6.736;2022-12-29T06:33:03;1.15;;;0.50;;
59930;SDS011;45790;51.538;6.736;2022-12-29T06:35:28;1.92;;;0.47;;
59930;SDS011;45790;51.538;6.736;2022-12-29T06:37:53;0.93;;;0.50;;
59930;SDS011;45790;51.538;6.736;2022-12-29T06:40:19;0.57;;;0.35;;
59930;SDS011;45790;51.538;6.736;2022-12-29T06:42:44;1.95;;;0.50;;
59930;SDS011;45790;51.538;6.736;2022-12-29T06:45:10;1.08;;;0.32;;
59930;SDS011;45790;51.538;6.736;2022-12-29T06:47:35;0.73;;;0.40;;
59930;SDS011;45790;51.538;6.736;2022-12-29T06:50:01;0.63;;;0.40;;
59930;SDS011;45790;51.538;6.736;2022-12-29T06:52:27;0.85;;;0.50;;
59930;SDS011;45790;51.538;6.736;2022-12-29T06:54:53;1.13;;;0.35;;
59930;SDS011;45790;51.538;6.736;2022-12-29T06:57:19;2.15;;;0.65;;
59930;SDS011;45790;51.538;6.736;2022-12-29T06:59:45;0.65;;;0.40;;
59930;SDS011;45790;51.538;6.736;2022-12-29T07:02:10;1.20;;;0.40;;
59930;SDS011;45790;51.538;6.736;2022-12-29T07:04:36;1.90;;;0.50;;
59930;SDS011;45790;51.538;6.736;2022-12-29T07:07:01;1.95;;;0.50;;
59930;SDS011;45790;51.538;6.736;2022-12-29T07:09:26;1.27;;;0.50;;
59930;SDS011;45790;51.538;6.736;2022-12-29T07:11:52;1.80;;;0.45;;
59930;SDS011;45790;51.538;6.736;2022-12-29T07:14:17;0.85;;;0.55;;
59930;SDS011;45790;51.538;6.736;2022-12-29T07:16:42;0.95;;;0.50;;
59930;SDS011;45790;51.538;6.736;2022-12-29T07:19:07;1.20;;;0.40;;
59930;SDS011;45790;51.538;6.736;2022-12-29T07:21:33;0.47;;;0.30;;
59930;SDS011;45790;51.538;6.736;2022-12-29T07:23:58;0.95;;;0.45;;
59930;SDS011;45790;51.538;6.736;2022-12-29T07:26:24;1.13;;;0.57;;
59930;SDS011;45790;51.538;6.736;2022-12-29T07:28:49;0.77;;;0.50;;
59930;SDS011;45790;51.538;6.736;2022-12-29T07:31:16;3.30;;;0.57;;
59930;SDS011;45790;51.538;6.736;2022-12-29T07:33:43;0.52;;;0.40;;
59930;SDS011;45790;51.538;6.736;2022-12-29T07:36:10;1.55;;;0.40;;
59930;SDS011;45790;51.538;6.736;2022-12-29T07:38:36;2.03;;;0.60;;
59930;SDS011;45790;51.538;6.736;2022-12-29T07:41:01;1.83;;;0.57;;
59930;SDS011;45790;51.538;6.736;2022-12-29T07:43:26;1.45;;;0.45;;
59930;SDS011;45790;51.538;6.736;2022-12-29T07:45:52;4.00;;;0.57;;
59930;SDS011;45790;51.538;6.736;2022-12-29T07:48:17;1.70;;;0.50;;
59930;SDS011;45790;51.538;6.736;2022-12-29T07:50:42;2.05;;;0.40;;
59930;SDS011;45790;51.538;6.736;2022-12-29T07:53:08;1.33;;;0.40;;
59930;SDS011;45790;51.538;6.736;2022-12-29T07:55:36;2.72;;;0.60;;
59930;SDS011;45790;51.538;6.736;2022-12-29T07:58:01;1.13;;;0.50;;
59930;SDS011;45790;51.538;6.736;2022-12-29T08:00:29;2.40;;;0.50;;
59930;SDS011;45790;51.538;6.736;2022-12-29T08:02:54;2.10;;;0.90;;
59930;SDS011;45790;51.538;6.736;2022-12-29T08:05:20;2.92;;;0.70;;
59930;SDS011;45790;51.538;6.736;2022-12-29T08:07:45;2.42;;;0.60;;
59930;SDS011;45790;51.538;6.736;2022-12-29T08:10:12;3.28;;;0.70;;
59930;SDS011;45790;51.538;6.736;2022-12-29T08:12:38;1.65;;;0.47;;
59930;SDS011;45790;51.538;6.736;2022-12-29T08:15:04;1.73;;;0.60;;
59930;SDS011;45790;51.538;6.736;2022-12-29T08:17:30;2.15;;;0.65;;
59930;SDS011;45790;51.538;6.736;2022-12-29T08:19:55;2.10;;;0.70;;
59930;SDS011;45790;51.538;6.736;2022-12-29T08:22:21;4.30;;;0.60;;
59930;SDS011;45790;51.538;6.736;2022-12-29T08:24:46;1.25;;;0.40;;
59930;SDS011;45790;51.538;6.736;2022-12-29T08:27:11;2.75;;;0.50;;
59930;SDS011;45790;51.538;6.736;2022-12-29T08:29:37;1.85;;;0.60;;
59930;SDS011;45790;51.538;6.736;2022-12-29T08:32:02;2.78;;;0.95;;
59930;SDS011;45790;51.538;6.736;2022-12-29T08:34:28;3.25;;;0.80;;
59930;SDS011;45790;51.538;6.736;2022-12-29T08:36:53;3.10;;;0.70;;
59930;SDS011;45790;51.538;6.736;2022-12-29T08:39:18;2.15;;;0.63;;
59930;SDS011;45790;51.538;6.736;2022-12-29T08:41:44;3.58;;;0.82;;
59930;SDS011;45790;51.538;6.736;2022-12-29T08:44:09;3.78;;;0.93;;
59930;SDS011;45790;51.538;6.736;2022-12-29T08:46:34;2.25;;;1.05;;
59930;SDS011;45790;51.538;6.736;2022-12-29T08:49:00;3.95;;;0.80;;
59930;SDS011;45790;51.538;6.736;2022-12-29T08:51:25;1.27;;;0.70;;
59930;SDS011;45790;51.538;6.736;2022-12-29T08:53:51;3.65;;;0.57;;
59930;SDS011;45790;51.538;6.736;2022-12-29T08:56:16;1.95;;;0.55;;
59930;SDS011;45790;51.538;6.736;2022-12-29T08:58:42;2.75;;;0.70;;
59930;SDS011;45790;51.538;6.736;2022-12-29T09:01:08;2.10;;;0.45;;
59930;SDS011;45790;51.538;6.736;2022-12-29T09:03:34;3.53;;;0.98;;
59930;SDS011;45790;51.538;6.736;2022-12-29T09:05:59;2.28;;;0.60;;
59930;SDS011;45790;51.538;6.736;2022-12-29T09:08:25;1.38;;;0.60;;
59930;SDS011;45790;51.538;6.736;2022-12-29T09:10:50;3.60;;;0.80;;
59930;SDS011;45790;51.538;6.736;2022-12-29T09:13:16;2.22;;;0.70;;
59930;SDS011;45790;51.538;6.736;2022-12-29T09:15:42;2.67;;;0.70;;
59930;SDS011;45790;51.538;6.736;2022-12-29T09:18:08;3.20;;;0.57;;
59930;SDS011;45790;51.538;6.736;2022-12-29T09:20:34;3.38;;;0.70;;
59930;SDS011;45790;51.538;6.736;2022-12-29T09:23:00;3.75;;;0.65;;
59930;SDS011;45790;51.538;6.736;2022-12-29T09:25:25;3.63;;;0.70;;
59930;SDS011;45790;51.538;6.736;2022-12-29T09:27:51;2.53;;;0.60;;
59930;SDS011;45790;51.538;6.736;2022-12-29T09:30:18;5.22;;;0.90;;
59930;SDS011;45790;51.538;6.736;2022-12-29T09:32:45;2.42;;;1.15;;
59930;SDS011;45790;51.538;6.736;2022-12-29T09:35:11;3.03;;;0.73;;
59930;SDS011;45790;51.538;6.736;2022-12-29T09:37:37;4.28;;;0.90;;
59930;SDS011;45790;51.538;6.736;2022-12-29T09:40:03;2.85;;;0.60;;
59930;SDS011;45790;51.538;6.736;2022-12-29T09:45:45;2.45;;;0.80;;
59930;SDS011;45790;51.538;6.736;2022-12-29T09:48:16;3.17;;;0.75;;
59930;SDS011;45790;51.538;6.736;2022-12-29T09:50:44;3.70;;;0.70;;
59930;SDS011;45790;51.538;6.736;2022-12-29T09:55:55;2.95;;;0.80;;
59930;SDS011;45790;51.538;6.736;2022-12-29T09:58:27;2.60;;;0.75;;
59930;SDS011;45790;51.538;6.736;2022-12-29T10:01:05;3.40;;;0.90;;
59930;SDS011;45790;51.538;6.736;2022-12-29T10:09:06;2.83;;;1.00;;
59930;SDS011;45790;51.538;6.736;2022-12-29T10:17:53;3.92;;;0.75;;
59930;SDS011;45790;51.538;6.736;2022-12-29T10:20:27;2.53;;;0.70;;
59930;SDS011;45790;51.538;6.736;2022-12-29T10:22:59;4.70;;;0.85;;
59930;SDS011;45790;51.538;6.736;2022-12-29T10:25:31;4.25;;;1.08;;
59930;SDS011;45790;51.538;6.736;2022-12-29T10:27:59;4.32;;;0.80;;
59930;SDS011;45790;51.538;6.736;2022-12-29T10:30:26;2.83;;;0.80;;
59930;SDS011;45790;51.538;6.736;2022-12-29T10:32:52;3.83;;;0.95;;
59930;SDS011;45790;51.538;6.736;2022-12-29T10:35:21;2.05;;;0.60;;
59930;SDS011;45790;51.538;6.736;2022-12-29T10:41:25;2.15;;;0.70;;
59930;SDS011;45790;51.538;6.736;2022-12-29T10:43:46;2.35;;;0.70;;
59930;SDS011;45790;51.538;6.736;2022-12-29T10:46:14;3.97;;;0.85;;
59930;SDS011;45790;51.538;6.736;2022-12-29T10:48:42;3.65;;;1.08;;
59930;SDS011;45790;51.538;6.736;2022-12-29T10:51:10;4.65;;;1.20;;
59930;SDS011;45790;51.538;6.736;2022-12-29T10:56:04;3.17;;;0.95;;
59930;SDS011;45790;51.538;6.736;2022-12-29T10:58:38;2.92;;;0.63;;
59930;SDS011;45790;51.538;6.736;2022-12-29T11:01:04;3.25;;;0.80;;
59930;SDS011;45790;51.538;6.736;2022-12-29T11:06:28;4.00;;;0.68;;
59930;SDS011;45790;51.538;6.736;2022-12-29T11:11:24;2.83;;;0.73;;
59930;SDS011;45790;51.538;6.736;2022-12-29T11:16:38;2.42;;;0.80;;
59930;SDS011;45790;51.538;6.736;2022-12-29T11:19:04;3.60;;;0.60;;
59930;SDS011;45790;51.538;6.736;2022-12-29T11:23:56;3.60;;;0.77;;
59930;SDS011;45790;51.538;6.736;2022-12-29T11:26:23;3.67;;;0.85;;
59930;SDS011;45790;51.538;6.736;2022-12-29T11:29:04;5.70;;;0.88;;
59930;SDS011;45790;51.538;6.736;2022-12-29T11:31:30;3.80;;;1.33;;
59930;SDS011;45790;51.538;6.736;2022-12-29T11:33:55;5.25;;;1.23;;
59930;SDS011;45790;51.538;6.736;2022-12-29T11:36:21;2.58;;;0.88;;
59930;SDS011;45790;51.538;6.736;2022-12-29T11:38:49;4.30;;;0.95;;
59930;SDS011;45790;51.538;6.736;2022-12-29T11:41:25;6.55;;;0.90;;
59930;SDS011;45790;51.538;6.736;2022-12-29T11:43:53;7.15;;;0.90;;
59930;SDS011;45790;51.538;6.736;2022-12-29T11:46:25;2.58;;;0.70;;
59930;SDS011;45790;51.538;6.736;2022-12-29T11:48:53;3.70;;;0.90;;
59930;SDS011;45790;51.538;6.736;2022-12-29T11:51:38;3.47;;;0.75;;
59930;SDS011;45790;51.538;6.736;2022-12-29T11:54:09;3.55;;;1.05;;
59930;SDS011;45790;51.538;6.736;2022-12-29T11:56:42;3.47;;;0.90;;
59930;SDS011;45790;51.538;6.736;2022-12-29T12:01:51;4.45;;;0.88;;
59930;SDS011;45790;51.538;6.736;2022-12-29T12:04:18;5.68;;;0.75;;
59930;SDS011;45790;51.538;6.736;2022-12-29T12:06:48;5.65;;;1.08;;
59930;SDS011;45790;51.538;6.736;2022-12-29T12:12:08;3.67;;;0.93;;
59930;SDS011;45790;51.538;6.736;2022-12-29T12:14:53;4.28;;;0.77;;
59930;SDS011;45790;51.538;6.736;2022-12-29T12:17:29;2.42;;;0.90;;
59930;SDS011;45790;51.538;6.736;2022-12-29T12:20:25;4.25;;;1.10;;
59930;SDS011;45790;51.538;6.736;2022-12-29T12:22:54;3.20;;;0.60;;
59930;SDS011;45790;51.538;6.736;2022-12-29T12:25:34;5.05;;;0.90;;
59930;SDS011;45790;51.538;6.736;2022-12-29T12:30:52;5.28;;;0.82;;
59930;SDS011;45790;51.538;6.736;2022-12-29T12:33:39;6.88;;;1.00;;
59930;SDS011;45790;51.538;6.736;2022-12-29T12:36:28;6.40;;;0.90;;
59930;SDS011;45790;51.538;6.736;2022-12-29T12:44:25;4.38;;;1.00;;
59930;SDS011;45790;51.538;6.736;2022-12-29T12:49:59;3.45;;;0.80;;
59930;SDS011;45790;51.538;6.736;2022-12-29T12:52:33;4.18;;;0.80;;
59930;SDS011;45790;51.538;6.736;2022-12-29T12:55:33;5.27;;;0.77;;
59930;SDS011;45790;51.538;6.736;2022-12-29T12:58:47;2.55;;;0.70;;
59930;SDS011;45790;51.538;6.736;2022-12-29T13:18:25;5.55;;;1.00;;
59930;SDS011;45790;51.538;6.736;2022-12-29T13:21:10;2.97;;;0.95;;
59930;SDS011;45790;51.538;6.736;2022-12-29T13:26:54;4.03;;;0.88;;
59930;SDS011;45790;51.538;6.736;2022-12-29T13:29:43;2.33;;;0.90;;
59930;SDS011;45790;51.538;6.736;2022-12-29T13:32:18;4.50;;;0.80;;
59930;SDS011;45790;51.538;6.736;2022-12-29T13:37:36;4.05;;;0.80;;
59930;SDS011;45790;51.538;6.736;2022-12-29T13:40:17;5.53;;;0.95;;
59930;SDS011;45790;51.538;6.736;2022-12-29T13:42:44;3.95;;;1.08;;
59930;SDS011;45790;51.538;6.736;2022-12-29T13:45:12;2.72;;;1.00;;
59930;SDS011;45790;51.538;6.736;2022-12-29T13:47:48;3.97;;;0.88;;
59930;SDS011;45790;51.538;6.736;2022-12-29T13:50:22;4.18;;;0.93;;
59930;SDS011;45790;51.538;6.736;2022-12-29T13:52:59;5.65;;;1.00;;
59930;SDS011;45790;51.538;6.736;2022-12-29T14:01:00;4.32;;;0.90;;
59930;SDS011;45790;51.538;6.736;2022-12-29T14:06:18;2.50;;;0.90;;
59930;SDS011;45790;51.538;6.736;2022-12-29T14:08:55;2.97;;;0.85;;
59930;SDS011;45790;51.538;6.736;2022-12-29T14:11:40;3.97;;;0.80;;
59930;SDS011;45790;51.538;6.736;2022-12-29T14:14:13;2.05;;;0.70;;
59930;SDS011;45790;51.538;6.736;2022-12-29T14:16:43;4.35;;;0.93;;
59930;SDS011;45790;51.538;6.736;2022-12-29T14:19:11;5.38;;;1.17;;
59930;SDS011;45790;51.538;6.736;2022-12-29T14:21:39;4.55;;;1.10;;
59930;SDS011;45790;51.538;6.736;2022-12-29T14:29:47;3.97;;;0.80;;
59930;SDS011;45790;51.538;6.736;2022-12-29T14:34:51;5.60;;;0.88;;
59930;SDS011;45790;51.538;6.736;2022-12-29T14:40:01;3.67;;;0.95;;
59930;SDS011;45790;51.538;6.736;2022-12-29T14:42:31;3.83;;;0.73;;
59930;SDS011;45790;51.538;6.736;2022-12-29T14:44:58;4.75;;;1.17;;
59930;SDS011;45790;51.538;6.736;2022-12-29T14:49:55;2.92;;;0.80;;
59930;SDS011;45790;51.538;6.736;2022-12-29T14:52:25;5.13;;;0.93;;
59930;SDS011;45790;51.538;6.736;2022-12-29T14:57:47;2.92;;;0.68;;
59930;SDS011;45790;51.538;6.736;2022-12-29T15:00:16;4.80;;;0.77;;
59930;SDS011;45790;51.538;6.736;2022-12-29T15:02:45;3.75;;;0.93;;
59930;SDS011;45790;51.538;6.736;2022-12-29T15:05:30;4.90;;;0.85;;
59930;SDS011;45790;51.538;6.736;2022-12-29T15:07:58;2.15;;;0.80;;
59930;SDS011;45790;51.538;6.736;2022-12-29T15:10:25;3.38;;;0.93;;
59930;SDS011;45790;51.538;6.736;2022-12-29T15:12:53;3.65;;;0.70;;
59930;SDS011;45790;51.538;6.736;2022-12-29T15:15:21;2.33;;;0.73;;
59930;SDS011;45790;51.538;6.736;2022-12-29T15:20:26;2.00;;;0.60;;
59930;SDS011;45790;51.538;6.736;2022-12-29T15:22:57;4.65;;;0.98;;
59930;SDS011;45790;51.538;6.736;2022-12-29T15:26:01;2.00;;;0.65;;
59930;SDS011;45790;51.538;6.736;2022-12-29T15:28:36;3.53;;;0.80;;
59930;SDS011;45790;51.538;6.736;2022-12-29T15:31:09;3.33;;;0.80;;
59930;SDS011;45790;51.538;6.736;2022-12-29T15:33:37;4.65;;;0.90;;
59930;SDS011;45790;51.538;6.736;2022-12-29T15:36:08;3.47;;;0.70;;
59930;SDS011;45790;51.538;6.736;2022-12-29T15:38:35;3.60;;;0.80;;
59930;SDS011;45790;51.538;6.736;2022-12-29T15:41:05;4.32;;;1.00;;
59930;SDS011;45790;51.538;6.736;2022-12-29T15:43:36;1.90;;;0.70;;
59930;SDS011;45790;51.538;6.736;2022-12-29T15:46:18;2.92;;;0.75;;
59930;SDS011;45790;51.538;6.736;2022-12-29T15:48:45;2.95;;;0.85;;
59930;SDS011;45790;51.538;6.736;2022-12-29T15:51:21;4.18;;;0.90;;
59930;SDS011;45790;51.538;6.736;2022-12-29T15:53:53;3.13;;;0.77;;
59930;SDS011;45790;51.538;6.736;2022-12-29T15:56:19;5.15;;;0.82;;
59930;SDS011;45790;51.538;6.736;2022-12-29T15:58:46;2.42;;;0.95;;
59930;SDS011;45790;51.538;6.736;2022-12-29T16:04:00;2.85;;;0.82;;
59930;SDS011;45790;51.538;6.736;2022-12-29T16:06:30;3.35;;;0.70;;
59930;SDS011;45790;51.538;6.736;2022-12-29T16:09:02;2.42;;;0.80;;
59930;SDS011;45790;51.538;6.736;2022-12-29T16:14:01;2.55;;;0.82;;
59930;SDS011;45790;51.538;6.736;2022-12-29T16:16:28;1.88;;;0.63;;
59930;SDS011;45790;51.538;6.736;2022-12-29T16:19:02;2.45;;;0.95;;
59930;SDS011;45790;51.538;6.736;2022-12-29T16:21:31;4.60;;;1.08;;
59930;SDS011;45790;51.538;6.736;2022-12-29T16:24:00;2.42;;;0.85;;
59930;SDS011;45790;51.538;6.736;2022-12-29T16:26:27;2.80;;;1.00;;
59930;SDS011;45790;51.538;6.736;2022-12-29T16:28:54;4.35;;;0.85;;
59930;SDS011;45790;51.538;6.736;2022-12-29T16:31:25;3.70;;;0.90;;
59930;SDS011;45790;51.538;6.736;2022-12-29T16:33:58;4.22;;;1.25;;
59930;SDS011;45790;51.538;6.736;2022-12-29T16:36:55;4.55;;;1.10;;
59930;SDS011;45790;51.538;6.736;2022-12-29T16:39:37;2.83;;;0.90;;
59930;SDS011;45790;51.538;6.736;2022-12-29T16:45:09;3.88;;;0.80;;
59930;SDS011;45790;51.538;6.736;2022-12-29T16:50:35;4.78;;;0.90;;
59930;SDS011;45790;51.538;6.736;2022-12-29T16:53:02;5.18;;;1.08;;
59930;SDS011;45790;51.538;6.736;2022-12-29T16:55:28;3.75;;;0.88;;
59930;SDS011;45790;51.538;6.736;2022-12-29T16:57:56;4.10;;;0.98;;
59930;SDS011;45790;51.538;6.736;2022-12-29T17:02:55;2.70;;;0.77;;
59930;SDS011;45790;51.538;6.736;2022-12-29T17:05:44;4.78;;;1.05;;
59930;SDS011;45790;51.538;6.736;2022-12-29T17:08:23;4.78;;;1.10;;
59930;SDS011;45790;51.538;6.736;2022-12-29T17:16:56;4.00;;;1.00;;
59930;SDS011;45790;51.538;6.736;2022-12-29T17:19:32;3.70;;;0.90;;
59930;SDS011;45790;51.538;6.736;2022-12-29T17:21:59;1.08;;;0.60;;
59930;SDS011;45790;51.538;6.736;2022-12-29T17:24:24;3.67;;;1.08;;
59930;SDS011;45790;51.538;6.736;2022-12-29T17:26:51;3.38;;;1.02;;
59930;SDS011;45790;51.538;6.736;2022-12-29T17:29:21;3.45;;;0.73;;
59930;SDS011;45790;51.538;6.736;2022-12-29T17:31:48;3.45;;;0.90;;
59930;SDS011;45790;51.538;6.736;2022-12-29T17:34:17;2.85;;;0.90;;
59930;SDS011;45790;51.538;6.736;2022-12-29T17:36:42;2.65;;;0.70;;